Picture Butte, Canada
Current Conditions -  °F | °C
As of 10:00 AM on Sunday 23 Nov 2014 (Local Time) from CYQL Reporting Station
Few Clouds Few Clouds  
Wind Chill: 26°   Ceiling: Unl
Heat Index: 37°   Visibility: 40mi
Dew Point: 21°   Wind: 24mph
Humidity: 52%   Direction: 260°W
Pressure: 29.83"   Gusts: 32mph
Location:  49.87°N, 112.78°W
Report Text: CYQL 231700Z 26021G28KT 40SM FEW260 03/M06 A2983 RMK CI2 SLP129
Loading
Personal Weather Stations






























Interactive Weather Map New forecast layout! Learn more

10-Day Weather Forecast

Advertisements
Track Severe Weather on mobile